SANTIAGO DE COMPOSTELA, GALICIA

latitud = 42° 53' 17''N | Longitud = 008° 24' 38''W
370 metros sobre el nivel del mar | datos mensuales

Fecha, hora, temperatura, viento dirección y velocidad, humedad y presión.

  • 24-02-2018 07:00:00 | 1.10°C | Calma |0.00 km/h | 66.00% | 962.50 hPa
  • 24-02-2018 06:00:00 | 1.40°C | Calma |0.00 km/h | 75.00% | 962.30 hPa
  • 24-02-2018 05:00:00 | 1.70°C | Calma |0.00 km/h | 84.00% | 962.10 hPa
  • 24-02-2018 04:00:00 | 1.90°C | Sudeste |3.00 km/h | 85.00% | 962.30 hPa
  • 24-02-2018 03:00:00 | 2.30°C | Calma |0.00 km/h | 84.00% | 962.40 hPa
  • 24-02-2018 02:00:00 | 3.00°C | Sudeste |3.00 km/h | 82.00% | 962.50 hPa
  • 24-02-2018 01:00:00 | 3.30°C | Sudeste |4.00 km/h | 87.00% | 962.60 hPa
  • 24-02-2018 00:00:00 | 3.70°C | Nordeste |2.00 km/h | 89.00% | 962.80 hPa
  • 23-02-2018 23:00:00 | 4.20°C | Noroeste |8.00 km/h | 89.00% | 962.90 hPa
  • 23-02-2018 22:00:00 | 4.80°C | Norte |9.00 km/h | 88.00% | 962.70 hPa
  • 23-02-2018 21:00:00 | 6.20°C | Noroeste |14.00 km/h | 84.00% | 962.70 hPa
  • 23-02-2018 20:00:00 | 7.80°C | Noroeste |14.00 km/h | 74.00% | 962.60 hPa
  • 23-02-2018 19:00:00 | 10.90°C | Norte |4.00 km/h | 52.00% | 962.10 hPa
  • 23-02-2018 18:00:00 | 12.40°C | Nordeste |3.00 km/h | 45.00% | 961.80 hPa
  • 23-02-2018 17:00:00 | 12.90°C | Noroeste |6.00 km/h | 42.00% | 962.00 hPa
  • 23-02-2018 16:00:00 | 12.50°C | Nordeste |5.00 km/h | 42.00% | 962.50 hPa
  • 23-02-2018 15:00:00 | 12.50°C | Nordeste |4.00 km/h | 42.00% | 963.10 hPa
  • 23-02-2018 14:00:00 | 11.70°C | Sur |4.00 km/h | 39.00% | 963.50 hPa
  • 23-02-2018 13:00:00 | 10.70°C | Sudeste |8.00 km/h | 37.00% | 964.20 hPa
  • 23-02-2018 12:00:00 | 8.90°C | Sudeste |7.00 km/h | 42.00% | 964.50 hPa
  • 23-02-2018 11:00:00 | 6.70°C | Sudeste |13.00 km/h | 41.00% | 964.60 hPa
  • 23-02-2018 10:00:00 | 4.50°C | Sudeste |11.00 km/h | 49.00% | 964.60 hPa
  • 23-02-2018 09:00:00 | 0.00°C | 0 |0.00 km/h | 0.00% | 0.00 hPa
  • 23-02-2018 08:00:00 | 0.00°C | 0 |0.00 km/h | 0.00% | 0.00 hPa